sensor_id;sensor_type;location;lat;lon;timestamp;pressure;altitude;pressure_sealevel;temperature;humidity
22261;BME280;11299;43.202;27.920;2023-05-09T00:00:01;89660.66;;;12.70;100.00
22261;BME280;11299;43.202;27.920;2023-05-09T00:02:27;88936.44;;;12.59;100.00
22261;BME280;11299;43.202;27.920;2023-05-09T00:04:54;90002.00;;;12.62;100.00
22261;BME280;11299;43.202;27.920;2023-05-09T00:07:19;89895.22;;;11.90;100.00
22261;BME280;11299;43.202;27.920;2023-05-09T00:09:45;88946.75;;;12.66;100.00
22261;BME280;11299;43.202;27.920;2023-05-09T00:12:10;88844.91;;;11.97;100.00
22261;BME280;11299;43.202;27.920;2023-05-09T00:14:36;86421.31;;;12.32;100.00
22261;BME280;11299;43.202;27.920;2023-05-09T00:17:05;86396.94;;;12.15;100.00
22261;BME280;11299;43.202;27.920;2023-05-09T00:19:32;87511.00;;;12.52;100.00
22261;BME280;11299;43.202;27.920;2023-05-09T00:21:57;86841.13;;;12.78;100.00
22261;BME280;11299;43.202;27.920;2023-05-09T00:24:23;82586.00;;;12.69;100.00
22261;BME280;11299;43.202;27.920;2023-05-09T00:26:48;76254.06;;;12.86;100.00
22261;BME280;11299;43.202;27.920;2023-05-09T00:29:14;71238.63;;;12.18;100.00
22261;BME280;11299;43.202;27.920;2023-05-09T00:31:39;70935.16;;;12.59;100.00
22261;BME280;11299;43.202;27.920;2023-05-09T00:34:04;70618.34;;;12.89;100.00
22261;BME280;11299;43.202;27.920;2023-05-09T00:36:30;69863.50;;;12.46;100.00
22261;BME280;11299;43.202;27.920;2023-05-09T00:38:56;71291.97;;;12.63;100.00
22261;BME280;11299;43.202;27.920;2023-05-09T00:41:21;73407.66;;;12.65;100.00
22261;BME280;11299;43.202;27.920;2023-05-09T00:43:47;70155.25;;;11.94;100.00
22261;BME280;11299;43.202;27.920;2023-05-09T00:46:12;70872.66;;;12.06;100.00
22261;BME280;11299;43.202;27.920;2023-05-09T00:48:38;70235.81;;;12.63;100.00
22261;BME280;11299;43.202;27.920;2023-05-09T00:51:04;74111.78;;;12.65;100.00
22261;BME280;11299;43.202;27.920;2023-05-09T00:53:29;73368.63;;;12.33;100.00
22261;BME280;11299;43.202;27.920;2023-05-09T00:55:55;76858.69;;;12.07;100.00
22261;BME280;11299;43.202;27.920;2023-05-09T00:58:22;81125.91;;;12.34;100.00
22261;BME280;11299;43.202;27.920;2023-05-09T01:00:48;85747.19;;;12.55;100.00
22261;BME280;11299;43.202;27.920;2023-05-09T01:03:13;86733.78;;;12.03;100.00
22261;BME280;11299;43.202;27.920;2023-05-09T01:05:55;86761.84;;;12.23;100.00
22261;BME280;11299;43.202;27.920;2023-05-09T01:11:00;88484.06;;;11.92;100.00
22261;BME280;11299;43.202;27.920;2023-05-09T01:13:40;88204.56;;;12.43;100.00
22261;BME280;11299;43.202;27.920;2023-05-09T01:16:31;88210.44;;;12.47;100.00
22261;BME280;11299;43.202;27.920;2023-05-09T01:21:29;87397.69;;;11.74;100.00
22261;BME280;11299;43.202;27.920;2023-05-09T01:32:07;69853.63;;;12.37;100.00
22261;BME280;11299;43.202;27.920;2023-05-09T01:34:33;62458.09;;;12.22;100.00
22261;BME280;11299;43.202;27.920;2023-05-09T01:37:00;57723.03;;;10.39;100.00
22261;BME280;11299;43.202;27.920;2023-05-09T01:39:29;57897.69;;;12.21;100.00
22261;BME280;11299;43.202;27.920;2023-05-09T01:42:00;52951.09;;;11.72;100.00
22261;BME280;11299;43.202;27.920;2023-05-09T01:44:31;46009.88;;;12.31;100.00
22261;BME280;11299;43.202;27.920;2023-05-09T01:47:00;46349.88;;;12.19;100.00
22261;BME280;11299;43.202;27.920;2023-05-09T01:49:28;48455.16;;;12.30;100.00
22261;BME280;11299;43.202;27.920;2023-05-09T01:51:56;52992.28;;;12.18;100.00
22261;BME280;11299;43.202;27.920;2023-05-09T01:54:22;52999.78;;;12.27;100.00
22261;BME280;11299;43.202;27.920;2023-05-09T01:56:50;51942.97;;;12.19;100.00
22261;BME280;11299;43.202;27.920;2023-05-09T01:59:18;52932.06;;;11.50;100.00
22261;BME280;11299;43.202;27.920;2023-05-09T02:01:45;55087.63;;;12.13;100.00
22261;BME280;11299;43.202;27.920;2023-05-09T02:04:12;59589.91;;;11.60;100.00
22261;BME280;11299;43.202;27.920;2023-05-09T02:06:40;62440.41;;;12.05;100.00
22261;BME280;11299;43.202;27.920;2023-05-09T02:09:07;64554.81;;;12.13;100.00
22261;BME280;11299;43.202;27.920;2023-05-09T02:11:32;62777.16;;;11.91;100.00
22261;BME280;11299;43.202;27.920;2023-05-09T02:13:58;65174.56;;;11.36;100.00
22261;BME280;11299;43.202;27.920;2023-05-09T02:16:24;67318.44;;;11.71;100.00
22261;BME280;11299;43.202;27.920;2023-05-09T02:18:49;67576.69;;;10.88;100.00
22261;BME280;11299;43.202;27.920;2023-05-09T02:21:16;70516.25;;;12.02;100.00
22261;BME280;11299;43.202;27.920;2023-05-09T02:23:41;73329.59;;;12.01;100.00
22261;BME280;11299;43.202;27.920;2023-05-09T02:26:07;73324.09;;;11.96;100.00
22261;BME280;11299;43.202;27.920;2023-05-09T02:28:33;75067.38;;;11.83;100.00
22261;BME280;11299;43.202;27.920;2023-05-09T02:31:00;78186.44;;;11.44;100.00
22261;BME280;11299;43.202;27.920;2023-05-09T02:33:33;78176.03;;;11.35;100.00
22261;BME280;11299;43.202;27.920;2023-05-09T02:36:01;79902.34;;;11.09;100.00
22261;BME280;11299;43.202;27.920;2023-05-09T02:38:27;83862.16;;;11.70;100.00
22261;BME280;11299;43.202;27.920;2023-05-09T02:40:52;85964.97;;;11.60;100.00
22261;BME280;11299;43.202;27.920;2023-05-09T02:43:17;86328.09;;;11.67;100.00
22261;BME280;11299;43.202;27.920;2023-05-09T02:45:43;88476.00;;;11.86;100.00
22261;BME280;11299;43.202;27.920;2023-05-09T02:48:09;89176.25;;;11.82;100.00
22261;BME280;11299;43.202;27.920;2023-05-09T02:50:34;89880.28;;;11.80;100.00
22261;BME280;11299;43.202;27.920;2023-05-09T02:53:02;90925.94;;;11.70;100.00
22261;BME280;11299;43.202;27.920;2023-05-09T02:55:28;91636.22;;;11.72;100.00
22261;BME280;11299;43.202;27.920;2023-05-09T02:57:54;91525.13;;;10.98;100.00
22261;BME280;11299;43.202;27.920;2023-05-09T03:00:19;91987.63;;;11.70;100.00
22261;BME280;11299;43.202;27.920;2023-05-09T03:02:45;93401.19;;;11.69;100.00
22261;BME280;11299;43.202;27.920;2023-05-09T03:05:11;94710.50;;;11.01;100.00
22261;BME280;11299;43.202;27.920;2023-05-09T03:07:37;96225.78;;;11.65;100.00
22261;BME280;11299;43.202;27.920;2023-05-09T03:10:03;96099.56;;;10.85;100.00
22261;BME280;11299;43.202;27.920;2023-05-09T03:12:28;95856.56;;;11.55;100.00
22261;BME280;11299;43.202;27.920;2023-05-09T03:14:54;95136.78;;;11.48;100.00
22261;BME280;11299;43.202;27.920;2023-05-09T03:17:19;94110.47;;;11.70;100.00
22261;BME280;11299;43.202;27.920;2023-05-09T03:19:47;93654.56;;;11.04;100.00
22261;BME280;11299;43.202;27.920;2023-05-09T03:22:13;92597.34;;;11.06;100.00
22261;BME280;11299;43.202;27.920;2023-05-09T03:24:39;92332.88;;;11.65;100.00
22261;BME280;11299;43.202;27.920;2023-05-09T03:27:05;90826.25;;;11.03;100.00
22261;BME280;11299;43.202;27.920;2023-05-09T03:29:31;90900.25;;;11.53;100.00
22261;BME280;11299;43.202;27.920;2023-05-09T03:31:57;90913.84;;;11.62;100.00
22261;BME280;11299;43.202;27.920;2023-05-09T03:34:23;90179.84;;;11.44;100.00
22261;BME280;11299;43.202;27.920;2023-05-09T03:36:48;91278.03;;;11.69;100.00
22261;BME280;11299;43.202;27.920;2023-05-09T03:39:14;93029.56;;;11.58;100.00
22261;BME280;11299;43.202;27.920;2023-05-09T03:41:39;92302.22;;;11.45;100.00
22261;BME280;11299;43.202;27.920;2023-05-09T03:44:06;90242.84;;;11.86;100.00
22261;BME280;11299;43.202;27.920;2023-05-09T03:46:31;88080.09;;;11.57;100.00
22261;BME280;11299;43.202;27.920;2023-05-09T03:48:57;89173.28;;;11.80;100.00
22261;BME280;11299;43.202;27.920;2023-05-09T03:51:22;90602.47;;;11.90;100.00
22261;BME280;11299;43.202;27.920;2023-05-09T03:53:48;90265.31;;;12.01;100.00
22261;BME280;11299;43.202;27.920;2023-05-09T03:56:13;87418.03;;;11.88;100.00
22261;BME280;11299;43.202;27.920;2023-05-09T03:58:39;87050.25;;;11.78;100.00
22261;BME280;11299;43.202;27.920;2023-05-09T04:01:04;85649.00;;;11.86;100.00
22261;BME280;11299;43.202;27.920;2023-05-09T04:03:30;86715.75;;;11.91;100.00
22261;BME280;11299;43.202;27.920;2023-05-09T04:05:56;88492.16;;;11.97;100.00
22261;BME280;11299;43.202;27.920;2023-05-09T04:08:21;90631.09;;;12.09;100.00
22261;BME280;11299;43.202;27.920;2023-05-09T04:10:51;91335.66;;;12.07;100.00
22261;BME280;11299;43.202;27.920;2023-05-09T04:13:17;92762.09;;;12.14;100.00
22261;BME280;11299;43.202;27.920;2023-05-09T04:15:42;91954.00;;;11.48;100.00
22261;BME280;11299;43.202;27.920;2023-05-09T04:18:08;91707.78;;;12.19;100.00
22261;BME280;11299;43.202;27.920;2023-05-09T04:20:33;92096.91;;;12.42;100.00
22261;BME280;11299;43.202;27.920;2023-05-09T04:22:59;91041.53;;;12.47;100.00
22261;BME280;11299;43.202;27.920;2023-05-09T04:25:24;90686.75;;;12.46;100.00
22261;BME280;11299;43.202;27.920;2023-05-09T04:27:50;88937.91;;;12.60;100.00
22261;BME280;11299;43.202;27.920;2023-05-09T04:30:16;87770.66;;;11.87;100.00
22261;BME280;11299;43.202;27.920;2023-05-09T04:32:42;86116.47;;;12.66;100.00
22261;BME280;11299;43.202;27.920;2023-05-09T04:35:10;84331.94;;;12.54;100.00
22261;BME280;11299;43.202;27.920;2023-05-09T04:37:36;83651.63;;;12.73;100.00
22261;BME280;11299;43.202;27.920;2023-05-09T04:40:02;81538.47;;;12.78;100.00
22261;BME280;11299;43.202;27.920;2023-05-09T04:42:29;78715.00;;;12.79;100.00
22261;BME280;11299;43.202;27.920;2023-05-09T04:44:57;76572.47;;;12.59;100.00
22261;BME280;11299;43.202;27.920;2023-05-09T04:47:23;77282.94;;;12.63;100.00
22261;BME280;11299;43.202;27.920;2023-05-09T04:49:48;75174.78;;;12.69;100.00
22261;BME280;11299;43.202;27.920;2023-05-09T04:52:13;74966.28;;;11.01;100.00
22261;BME280;11299;43.202;27.920;2023-05-09T04:54:39;72022.56;;;12.85;100.00
22261;BME280;11299;43.202;27.920;2023-05-09T04:57:05;70603.09;;;12.76;100.00
22261;BME280;11299;43.202;27.920;2023-05-09T04:59:31;69915.81;;;12.91;100.00
22261;BME280;11299;43.202;27.920;2023-05-09T05:01:56;69920.47;;;12.95;100.00
22261;BME280;11299;43.202;27.920;2023-05-09T05:04:22;70283.75;;;13.04;100.00
22261;BME280;11299;43.202;27.920;2023-05-09T05:06:48;70982.94;;;13.00;100.00
22261;BME280;11299;43.202;27.920;2023-05-09T05:09:13;70974.69;;;12.93;100.00
22261;BME280;11299;43.202;27.920;2023-05-09T05:11:38;70654.19;;;13.20;100.00
22261;BME280;11299;43.202;27.920;2023-05-09T05:14:04;69239.31;;;13.15;100.00
22261;BME280;11299;43.202;27.920;2023-05-09T05:16:29;65742.25;;;13.36;100.00
22261;BME280;11299;43.202;27.920;2023-05-09T05:18:55;56608.31;;;13.41;100.00
22261;BME280;11299;43.202;27.920;2023-05-09T05:21:20;51704.50;;;13.49;100.00
22261;BME280;11299;43.202;27.920;2023-05-09T05:23:46;50642.81;;;13.37;100.00
22261;BME280;11299;43.202;27.920;2023-05-09T05:26:11;48893.81;;;13.40;100.00
22261;BME280;11299;43.202;27.920;2023-05-09T05:28:37;48210.38;;;13.61;100.00
22261;BME280;11299;43.202;27.920;2023-05-09T05:31:02;46408.56;;;12.95;100.00
22261;BME280;11299;43.202;27.920;2023-05-09T05:33:28;42256.16;;;13.54;100.00
22261;BME280;11299;43.202;27.920;2023-05-09T05:35:53;46463.41;;;13.66;100.00
22261;BME280;11299;43.202;27.920;2023-05-09T05:38:19;48176.94;;;13.19;100.00
22261;BME280;11299;43.202;27.920;2023-05-09T05:40:45;49940.03;;;13.34;100.00
22261;BME280;11299;43.202;27.920;2023-05-09T05:43:10;47863.75;;;13.65;100.00
22261;BME280;11299;43.202;27.920;2023-05-09T05:45:35;34954.03;;;14.07;100.00
22261;BME280;11299;43.202;27.920;2023-05-09T05:48:01;18587.06;;;14.16;100.00
22261;BME280;11299;43.202;27.920;2023-05-09T05:50:27;5410.31;;;14.28;100.00
22261;BME280;11299;43.202;27.920;2023-05-09T05:52:53;-10818.97;;;14.26;100.00
22261;BME280;11299;43.202;27.920;2023-05-09T05:55:18;-21137.97;;;14.43;100.00
22261;BME280;11299;43.202;27.920;2023-05-09T05:57:44;-21141.56;;;14.55;100.00
22261;BME280;11299;43.202;27.920;2023-05-09T06:00:11;-21142.19;;;14.57;100.00
22261;BME280;11299;43.202;27.920;2023-05-09T06:02:41;-21145.47;;;14.67;100.00
22261;BME280;11299;43.202;27.920;2023-05-09T06:05:07;-21143.59;;;14.61;100.00
22261;BME280;11299;43.202;27.920;2023-05-09T06:07:32;-21152.69;;;14.90;100.00
22261;BME280;11299;43.202;27.920;2023-05-09T06:09:58;-21151.13;;;14.85;100.00
22261;BME280;11299;43.202;27.920;2023-05-09T06:12:23;-21134.84;;;14.33;100.00
22261;BME280;11299;43.202;27.920;2023-05-09T06:14:49;-21153.00;;;14.91;100.00
22261;BME280;11299;43.202;27.920;2023-05-09T06:17:14;-21160.53;;;15.16;100.00
22261;BME280;11299;43.202;27.920;2023-05-09T06:19:40;-21158.16;;;15.08;100.00
22261;BME280;11299;43.202;27.920;2023-05-09T06:22:05;-21164.28;;;15.28;100.00
22261;BME280;11299;43.202;27.920;2023-05-09T06:24:31;-21153.31;;;14.92;100.00
22261;BME280;11299;43.202;27.920;2023-05-09T06:26:56;-21161.47;;;15.19;100.00
22261;BME280;11299;43.202;27.920;2023-05-09T06:29:22;-21178.38;;;15.73;100.00
22261;BME280;11299;43.202;27.920;2023-05-09T06:31:47;-21181.19;;;15.82;100.00
22261;BME280;11299;43.202;27.920;2023-05-09T06:34:13;-21180.72;;;15.80;100.00
22261;BME280;11299;43.202;27.920;2023-05-09T06:36:39;-21178.38;;;15.73;100.00
22261;BME280;11299;43.202;27.920;2023-05-09T06:39:04;-21189.31;;;16.08;100.00
22261;BME280;11299;43.202;27.920;2023-05-09T06:41:30;-21193.56;;;16.22;100.00
22261;BME280;11299;43.202;27.920;2023-05-09T06:43:55;-21172.28;;;15.53;100.00
22261;BME280;11299;43.202;27.920;2023-05-09T06:46:21;-21194.19;;;16.24;100.00
22261;BME280;11299;43.202;27.920;2023-05-09T06:48:46;-21175.25;;;15.63;100.00
22261;BME280;11299;43.202;27.920;2023-05-09T06:51:12;-21188.22;;;16.05;100.00
22261;BME280;11299;43.202;27.920;2023-05-09T06:53:37;-21185.25;;;15.95;100.00
22261;BME280;11299;43.202;27.920;2023-05-09T06:56:03;-21184.47;;;15.92;100.00
22261;BME280;11299;43.202;27.920;2023-05-09T06:58:29;-21186.81;;;16.00;100.00
22261;BME280;11299;43.202;27.920;2023-05-09T07:00:55;-21193.84;;;16.23;100.00
22261;BME280;11299;43.202;27.920;2023-05-09T07:03:21;-21189.00;;;16.07;100.00
22261;BME280;11299;43.202;27.920;2023-05-09T07:05:46;-21189.63;;;16.09;100.00
22261;BME280;11299;43.202;27.920;2023-05-09T07:08:12;-21189.16;;;16.08;100.00
22261;BME280;11299;43.202;27.920;2023-05-09T07:10:37;-21184.16;;;15.91;100.00
22261;BME280;11299;43.202;27.920;2023-05-09T07:13:03;-21188.38;;;16.05;100.00
22261;BME280;11299;43.202;27.920;2023-05-09T07:15:29;-21208.72;;;16.70;100.00
22261;BME280;11299;43.202;27.920;2023-05-09T07:17:54;-21220.28;;;17.08;100.00
22261;BME280;11299;43.202;27.920;2023-05-09T07:20:20;-21224.97;;;17.23;100.00
22261;BME280;11299;43.202;27.920;2023-05-09T07:22:45;-21220.91;;;17.10;100.00
22261;BME280;11299;43.202;27.920;2023-05-09T07:25:11;-21223.88;;;17.19;100.00
22261;BME280;11299;43.202;27.920;2023-05-09T07:27:36;-21211.06;;;16.78;100.00
22261;BME280;11299;43.202;27.920;2023-05-09T07:30:05;-21220.44;;;17.08;100.00
22261;BME280;11299;43.202;27.920;2023-05-09T07:32:31;-21210.91;;;16.77;100.00
22261;BME280;11299;43.202;27.920;2023-05-09T07:34:56;-21209.97;;;16.74;100.00
22261;BME280;11299;43.202;27.920;2023-05-09T07:37:22;-21191.97;;;16.17;100.00
22261;BME280;11299;43.202;27.920;2023-05-09T07:39:47;-21203.09;;;16.52;100.00
22261;BME280;11299;43.202;27.920;2023-05-09T07:42:13;-21195.13;;;16.27;100.00
22261;BME280;11299;43.202;27.920;2023-05-09T07:44:38;-21194.31;;;16.24;100.00
22261;BME280;11299;43.202;27.920;2023-05-09T07:47:04;-21189.78;;;16.10;100.00
22261;BME280;11299;43.202;27.920;2023-05-09T07:49:30;-21189.94;;;16.10;100.00
22261;BME280;11299;43.202;27.920;2023-05-09T07:51:56;-21183.38;;;15.89;100.00
22261;BME280;11299;43.202;27.920;2023-05-09T07:54:22;-21183.38;;;15.89;100.00
22261;BME280;11299;43.202;27.920;2023-05-09T07:56:47;-21159.56;;;15.13;100.00
22261;BME280;11299;43.202;27.920;2023-05-09T07:59:12;-21182.75;;;15.87;100.00
22261;BME280;11299;43.202;27.920;2023-05-09T08:01:38;-21189.47;;;16.09;100.00
22261;BME280;11299;43.202;27.920;2023-05-09T08:04:03;-21185.09;;;15.94;100.00
22261;BME280;11299;43.202;27.920;2023-05-09T08:06:31;-21193.06;;;16.20;100.00
22261;BME280;11299;43.202;27.920;2023-05-09T08:08:57;-21191.50;;;16.15;100.00
22261;BME280;11299;43.202;27.920;2023-05-09T08:11:22;-21195.28;;;16.27;100.00
22261;BME280;11299;43.202;27.920;2023-05-09T08:13:48;-21187.28;;;16.01;100.00
22261;BME280;11299;43.202;27.920;2023-05-09T08:16:13;-21192.13;;;16.17;100.00
22261;BME280;11299;43.202;27.920;2023-05-09T08:18:41;-21173.66;;;15.58;100.00
22261;BME280;11299;43.202;27.920;2023-05-09T08:21:07;-21187.75;;;16.03;100.00
22261;BME280;11299;43.202;27.920;2023-05-09T08:23:32;-21190.25;;;16.11;100.00
22261;BME280;11299;43.202;27.920;2023-05-09T08:25:58;-21187.44;;;16.02;100.00
22261;BME280;11299;43.202;27.920;2023-05-09T08:28:23;-21192.13;;;16.17;100.00
22261;BME280;11299;43.202;27.920;2023-05-09T08:30:52;-21197.47;;;16.34;100.00
22261;BME280;11299;43.202;27.920;2023-05-09T08:33:17;-21203.41;;;16.53;100.00
22261;BME280;11299;43.202;27.920;2023-05-09T08:35:43;-21203.72;;;16.54;100.00
22261;BME280;11299;43.202;27.920;2023-05-09T08:38:08;-21210.13;;;16.75;100.00
22261;BME280;11299;43.202;27.920;2023-05-09T08:40:35;-21213.56;;;16.86;100.00
22261;BME280;11299;43.202;27.920;2023-05-09T08:43:05;-21214.03;;;16.87;100.00
22261;BME280;11299;43.202;27.920;2023-05-09T08:45:34;-21201.84;;;16.48;100.00
22261;BME280;11299;43.202;27.920;2023-05-09T08:48:05;-21217.16;;;16.98;100.00
22261;BME280;11299;43.202;27.920;2023-05-09T08:50:31;-21219.66;;;17.06;100.00
22261;BME280;11299;43.202;27.920;2023-05-09T08:52:57;-21221.22;;;17.11;100.00
22261;BME280;11299;43.202;27.920;2023-05-09T08:55:22;-21224.69;;;17.22;100.00
22261;BME280;11299;43.202;27.920;2023-05-09T08:57:48;-21227.16;;;17.30;100.00
22261;BME280;11299;43.202;27.920;2023-05-09T09:00:14;-21231.38;;;17.43;100.00
22261;BME280;11299;43.202;27.920;2023-05-09T09:02:41;-21221.38;;;17.11;100.00
22261;BME280;11299;43.202;27.920;2023-05-09T09:05:08;-21212.47;;;16.82;100.00
22261;BME280;11299;43.202;27.920;2023-05-09T09:07:35;-21229.66;;;17.38;100.00
22261;BME280;11299;43.202;27.920;2023-05-09T09:10:02;-21239.69;;;17.70;100.00
22261;BME280;11299;43.202;27.920;2023-05-09T09:12:28;-21241.88;;;17.77;100.00
22261;BME280;11299;43.202;27.920;2023-05-09T09:14:55;-21236.56;;;17.60;100.00
22261;BME280;11299;43.202;27.920;2023-05-09T09:17:25;-21211.69;;;16.80;100.00
22261;BME280;11299;43.202;27.920;2023-05-09T09:19:55;-21226.88;;;17.29;100.00
22261;BME280;11299;43.202;27.920;2023-05-09T09:22:22;-21220.44;;;17.08;100.00
22261;BME280;11299;43.202;27.920;2023-05-09T09:24:49;-21205.91;;;16.61;100.00
22261;BME280;11299;43.202;27.920;2023-05-09T09:27:15;-21187.28;;;16.01;100.00
22261;BME280;11299;43.202;27.920;2023-05-09T09:29:40;-21177.28;;;15.69;100.00
22261;BME280;11299;43.202;27.920;2023-05-09T09:32:06;-21165.53;;;15.32;100.00
22261;BME280;11299;43.202;27.920;2023-05-09T09:34:32;-21161.16;;;15.18;100.00
22261;BME280;11299;43.202;27.920;2023-05-09T09:36:57;-21161.78;;;15.20;100.00
22261;BME280;11299;43.202;27.920;2023-05-09T09:39:23;-21148.31;;;14.76;100.00
22261;BME280;11299;43.202;27.920;2023-05-09T09:41:49;-21117.59;;;13.78;100.00
22261;BME280;11299;43.202;27.920;2023-05-09T09:44:19;-16006.66;;;15.00;100.00
22261;BME280;11299;43.202;27.920;2023-05-09T09:46:49;-9452.31;;;15.17;100.00
22261;BME280;11299;43.202;27.920;2023-05-09T09:49:19;-1851.25;;;14.45;100.00
22261;BME280;11299;43.202;27.920;2023-05-09T09:51:50;6112.38;;;15.06;100.00
22261;BME280;11299;43.202;27.920;2023-05-09T09:54:16;10970.31;;;15.11;100.00
22261;BME280;11299;43.202;27.920;2023-05-09T09:56:49;14073.09;;;14.17;100.00
22261;BME280;11299;43.202;27.920;2023-05-09T09:59:19;26267.47;;;14.76;100.00
22261;BME280;11299;43.202;27.920;2023-05-09T10:02:03;23117.78;;;14.42;100.00
22261;BME280;11299;43.202;27.920;2023-05-09T10:04:36;39501.00;;;14.15;100.00
22261;BME280;11299;43.202;27.920;2023-05-09T10:07:04;51781.41;;;14.38;100.00
22261;BME280;11299;43.202;27.920;2023-05-09T10:09:31;63315.91;;;13.71;100.00
22261;BME280;11299;43.202;27.920;2023-05-09T10:12:01;71065.00;;;13.70;100.00
22261;BME280;11299;43.202;27.920;2023-05-09T10:14:29;77850.63;;;14.31;100.00
22261;BME280;11299;43.202;27.920;2023-05-09T10:16:56;57697.13;;;13.78;100.00
22261;BME280;11299;43.202;27.920;2023-05-09T10:19:23;24839.38;;;13.96;100.00
22261;BME280;11299;43.202;27.920;2023-05-09T10:27:05;-21134.38;;;14.32;100.00
22261;BME280;11299;43.202;27.920;2023-05-09T10:29:35;-21128.41;;;14.12;100.00
22261;BME280;11299;43.202;27.920;2023-05-09T10:32:08;-21143.28;;;14.60;100.00
22261;BME280;11299;43.202;27.920;2023-05-09T10:34:39;-21145.94;;;14.69;100.00
22261;BME280;11299;43.202;27.920;2023-05-09T10:37:07;-21135.00;;;14.34;100.00
22261;BME280;11299;43.202;27.920;2023-05-09T10:39:33;-21122.28;;;13.93;100.00
22261;BME280;11299;43.202;27.920;2023-05-09T10:41:59;-21141.09;;;14.53;100.00
22261;BME280;11299;43.202;27.920;2023-05-09T10:44:25;27648.59;;;14.47;100.00
22261;BME280;11299;43.202;27.920;2023-05-09T10:46:51;45114.25;;;14.34;100.00
22261;BME280;11299;43.202;27.920;2023-05-09T10:49:18;55283.78;;;14.27;100.00
22261;BME280;11299;43.202;27.920;2023-05-09T10:51:44;66207.53;;;14.40;100.00
22261;BME280;11299;43.202;27.920;2023-05-09T10:54:13;71114.59;;;14.12;100.00
22261;BME280;11299;43.202;27.920;2023-05-09T10:56:42;67900.81;;;13.77;100.00
22261;BME280;11299;43.202;27.920;2023-05-09T10:59:39;71834.81;;;14.24;100.00
22261;BME280;11299;43.202;27.920;2023-05-09T11:02:15;72883.31;;;14.15;100.00
22261;BME280;11299;43.202;27.920;2023-05-09T11:04:43;77856.44;;;14.35;100.00
22261;BME280;11299;43.202;27.920;2023-05-09T11:07:24;75744.66;;;14.43;100.00
22261;BME280;11299;43.202;27.920;2023-05-09T11:10:07;64432.81;;;14.28;100.00
22261;BME280;11299;43.202;27.920;2023-05-09T11:12:33;50693.59;;;13.97;100.00
22261;BME280;11299;43.202;27.920;2023-05-09T11:15:06;56389.69;;;14.82;100.00
22261;BME280;11299;43.202;27.920;2023-05-09T11:17:36;55684.31;;;14.80;100.00
22261;BME280;11299;43.202;27.920;2023-05-09T11:20:06;52892.09;;;15.03;100.00
22261;BME280;11299;43.202;27.920;2023-05-09T11:22:41;48001.22;;;15.38;100.00
22261;BME280;11299;43.202;27.920;2023-05-09T11:25:09;10626.25;;;15.27;100.00
22261;BME280;11299;43.202;27.920;2023-05-09T11:30:14;4379.34;;;15.05;100.00
22261;BME280;11299;43.202;27.920;2023-05-09T11:32:59;12010.25;;;15.02;100.00
22261;BME280;11299;43.202;27.920;2023-05-09T11:35:26;9227.31;;;14.68;100.00
22261;BME280;11299;43.202;27.920;2023-05-09T11:38:02;26956.97;;;14.59;100.00
22261;BME280;11299;43.202;27.920;2023-05-09T11:40:28;31112.69;;;14.02;100.00
22261;BME280;11299;43.202;27.920;2023-05-09T11:42:55;39524.94;;;14.51;100.00
22261;BME280;11299;43.202;27.920;2023-05-09T11:45:23;48937.97;;;13.94;100.00
22261;BME280;11299;43.202;27.920;2023-05-09T11:47:50;52477.47;;;14.31;100.00
22261;BME280;11299;43.202;27.920;2023-05-09T11:50:17;60926.09;;;14.43;100.00
22261;BME280;11299;43.202;27.920;2023-05-09T11:52:43;62672.16;;;14.29;100.00
22261;BME280;11299;43.202;27.920;2023-05-09T11:55:12;61960.19;;;14.21;100.00
22261;BME280;11299;43.202;27.920;2023-05-09T11:57:44;67955.00;;;14.26;100.00
22261;BME280;11299;43.202;27.920;2023-05-09T12:00:10;68639.31;;;14.07;100.00
22261;BME280;11299;43.202;27.920;2023-05-09T12:02:37;63333.81;;;13.88;100.00
22261;BME280;11299;43.202;27.920;2023-05-09T12:05:07;66827.69;;;13.63;100.00
22261;BME280;11299;43.202;27.920;2023-05-09T12:07:34;66503.13;;;13.88;100.00
22261;BME280;11299;43.202;27.920;2023-05-09T12:10:00;67950.47;;;14.22;100.00
22261;BME280;11299;43.202;27.920;2023-05-09T12:12:28;65058.47;;;13.55;100.00
22261;BME280;11299;43.202;27.920;2023-05-09T12:14:53;66842.13;;;13.76;100.00
22261;BME280;11299;43.202;27.920;2023-05-09T12:17:20;68969.06;;;13.87;100.00
22261;BME280;11299;43.202;27.920;2023-05-09T12:19:46;67175.44;;;13.59;100.00
22261;BME280;11299;43.202;27.920;2023-05-09T12:22:12;70007.13;;;13.70;100.00
22261;BME280;11299;43.202;27.920;2023-05-09T12:24:37;69307.22;;;13.74;100.00
22261;BME280;11299;43.202;27.920;2023-05-09T12:27:03;73906.00;;;13.85;100.00
22261;BME280;11299;43.202;27.920;2023-05-09T12:29:29;70731.13;;;13.86;100.00
22261;BME280;11299;43.202;27.920;2023-05-09T12:31:56;72761.13;;;13.13;100.00
22261;BME280;11299;43.202;27.920;2023-05-09T12:34:22;79181.00;;;13.66;100.00
22261;BME280;11299;43.202;27.920;2023-05-09T12:36:48;80983.84;;;13.92;100.00
22261;BME280;11299;43.202;27.920;2023-05-09T12:39:18;78096.03;;;13.47;100.00
22261;BME280;11299;43.202;27.920;2023-05-09T12:41:47;76321.88;;;13.40;100.00
22261;BME280;11299;43.202;27.920;2023-05-09T12:44:23;75651.63;;;13.69;100.00
22261;BME280;11299;43.202;27.920;2023-05-09T12:47:03;76350.41;;;13.63;100.00
22261;BME280;11299;43.202;27.920;2023-05-09T12:49:29;77060.03;;;13.65;100.00
22261;BME280;11299;43.202;27.920;2023-05-09T12:52:17;75634.06;;;13.55;100.00
22261;BME280;11299;43.202;27.920;2023-05-09T12:54:47;79454.00;;;13.04;100.00
22261;BME280;11299;43.202;27.920;2023-05-09T12:57:21;82007.38;;;13.64;100.00